sensor_id;sensor_type;location;lat;lon;timestamp;temperature;humidity
19340;HTU21D;9804;52.350;6.684;2023-02-28T00:00:11;4.67;-6.00
19340;HTU21D;9804;52.350;6.684;2023-02-28T00:02:39;4.57;-6.00
19340;HTU21D;9804;52.350;6.684;2023-02-28T00:05:06;4.54;-6.00
19340;HTU21D;9804;52.350;6.684;2023-02-28T00:07:32;4.77;-6.00
19340;HTU21D;9804;52.350;6.684;2023-02-28T00:09:57;4.77;-6.00
19340;HTU21D;9804;52.350;6.684;2023-02-28T00:12:23;4.84;-6.00
19340;HTU21D;9804;52.350;6.684;2023-02-28T00:14:49;4.82;-6.00
19340;HTU21D;9804;52.350;6.684;2023-02-28T00:17:15;4.77;-6.00
19340;HTU21D;9804;52.350;6.684;2023-02-28T00:19:43;4.76;-6.00
19340;HTU21D;9804;52.350;6.684;2023-02-28T00:22:09;4.71;-6.00
19340;HTU21D;9804;52.350;6.684;2023-02-28T00:24:34;4.69;-6.00
19340;HTU21D;9804;52.350;6.684;2023-02-28T00:26:59;4.69;-6.00
19340;HTU21D;9804;52.350;6.684;2023-02-28T00:29:25;4.67;-6.00
19340;HTU21D;9804;52.350;6.684;2023-02-28T00:31:50;4.68;-6.00
19340;HTU21D;9804;52.350;6.684;2023-02-28T00:34:15;4.68;-6.00
19340;HTU21D;9804;52.350;6.684;2023-02-28T00:36:41;4.60;-6.00
19340;HTU21D;9804;52.350;6.684;2023-02-28T00:39:10;4.67;-6.00
19340;HTU21D;9804;52.350;6.684;2023-02-28T00:41:36;4.71;-6.00
19340;HTU21D;9804;52.350;6.684;2023-02-28T00:44:01;4.72;-6.00
19340;HTU21D;9804;52.350;6.684;2023-02-28T00:46:27;4.74;-6.00
19340;HTU21D;9804;52.350;6.684;2023-02-28T00:48:52;4.68;-6.00
19340;HTU21D;9804;52.350;6.684;2023-02-28T00:51:17;4.73;-6.00
19340;HTU21D;9804;52.350;6.684;2023-02-28T00:53:43;4.74;-6.00
19340;HTU21D;9804;52.350;6.684;2023-02-28T00:56:08;4.72;-6.00
19340;HTU21D;9804;52.350;6.684;2023-02-28T00:58:33;4.76;-6.00
19340;HTU21D;9804;52.350;6.684;2023-02-28T01:00:59;4.74;-6.00
19340;HTU21D;9804;52.350;6.684;2023-02-28T01:03:24;4.72;-6.00
19340;HTU21D;9804;52.350;6.684;2023-02-28T01:05:50;4.74;-6.00
19340;HTU21D;9804;52.350;6.684;2023-02-28T01:08:15;4.75;-6.00
19340;HTU21D;9804;52.350;6.684;2023-02-28T01:10:41;4.73;-6.00
19340;HTU21D;9804;52.350;6.684;2023-02-28T01:13:07;4.71;-6.00
19340;HTU21D;9804;52.350;6.684;2023-02-28T01:15:32;4.68;-6.00
19340;HTU21D;9804;52.350;6.684;2023-02-28T01:17:58;4.74;-6.00
19340;HTU21D;9804;52.350;6.684;2023-02-28T01:20:23;4.72;-6.00
19340;HTU21D;9804;52.350;6.684;2023-02-28T01:22:49;4.69;-6.00
19340;HTU21D;9804;52.350;6.684;2023-02-28T01:25:14;4.68;-6.00
19340;HTU21D;9804;52.350;6.684;2023-02-28T01:27:40;4.69;-6.00
19340;HTU21D;9804;52.350;6.684;2023-02-28T01:30:07;4.74;-6.00
19340;HTU21D;9804;52.350;6.684;2023-02-28T01:32:33;4.77;-6.00
19340;HTU21D;9804;52.350;6.684;2023-02-28T01:34:58;4.82;-6.00
19340;HTU21D;9804;52.350;6.684;2023-02-28T01:37:23;4.80;-6.00
19340;HTU21D;9804;52.350;6.684;2023-02-28T01:39:49;4.75;-6.00
19340;HTU21D;9804;52.350;6.684;2023-02-28T01:42:14;4.71;-6.00
19340;HTU21D;9804;52.350;6.684;2023-02-28T01:45:03;4.69;-6.00
19340;HTU21D;9804;52.350;6.684;2023-02-28T01:47:36;4.73;-6.00
19340;HTU21D;9804;52.350;6.684;2023-02-28T01:50:07;4.71;-6.00
19340;HTU21D;9804;52.350;6.684;2023-02-28T01:52:35;4.71;-6.00
19340;HTU21D;9804;52.350;6.684;2023-02-28T01:55:02;4.71;-6.00
19340;HTU21D;9804;52.350;6.684;2023-02-28T01:57:34;4.74;-6.00
19340;HTU21D;9804;52.350;6.684;2023-02-28T02:00:23;4.74;-6.00
19340;HTU21D;9804;52.350;6.684;2023-02-28T02:02:54;4.77;-6.00
19340;HTU21D;9804;52.350;6.684;2023-02-28T02:05:23;4.72;-6.00
19340;HTU21D;9804;52.350;6.684;2023-02-28T02:07:52;4.75;-6.00
19340;HTU21D;9804;52.350;6.684;2023-02-28T02:10:21;4.76;-6.00
19340;HTU21D;9804;52.350;6.684;2023-02-28T02:13:19;4.76;-6.00
19340;HTU21D;9804;52.350;6.684;2023-02-28T02:18:43;4.75;-6.00
19340;HTU21D;9804;52.350;6.684;2023-02-28T02:29:54;4.89;-6.00
19340;HTU21D;9804;52.350;6.684;2023-02-28T02:35:34;4.90;-6.00
19340;HTU21D;9804;52.350;6.684;2023-02-28T02:38:28;4.81;-6.00
19340;HTU21D;9804;52.350;6.684;2023-02-28T02:41:12;4.84;-6.00
19340;HTU21D;9804;52.350;6.684;2023-02-28T02:43:44;4.88;-6.00
19340;HTU21D;9804;52.350;6.684;2023-02-28T02:46:21;4.95;-6.00
19340;HTU21D;9804;52.350;6.684;2023-02-28T02:48:50;4.84;-6.00
19340;HTU21D;9804;52.350;6.684;2023-02-28T02:51:20;4.82;-6.00
19340;HTU21D;9804;52.350;6.684;2023-02-28T02:54:13;4.93;-6.00
19340;HTU21D;9804;52.350;6.684;2023-02-28T02:56:45;5.03;-6.00
19340;HTU21D;9804;52.350;6.684;2023-02-28T02:59:14;5.03;-6.00
19340;HTU21D;9804;52.350;6.684;2023-02-28T03:01:53;5.01;-6.00
19340;HTU21D;9804;52.350;6.684;2023-02-28T03:04:23;5.00;-6.00
19340;HTU21D;9804;52.350;6.684;2023-02-28T03:06:51;5.00;-6.00
19340;HTU21D;9804;52.350;6.684;2023-02-28T03:09:21;4.95;-6.00
19340;HTU21D;9804;52.350;6.684;2023-02-28T03:11:47;4.88;-6.00
19340;HTU21D;9804;52.350;6.684;2023-02-28T03:25:20;4.93;-6.00
19340;HTU21D;9804;52.350;6.684;2023-02-28T03:31:03;4.92;-6.00
19340;HTU21D;9804;52.350;6.684;2023-02-28T03:36:29;4.92;-6.00
19340;HTU21D;9804;52.350;6.684;2023-02-28T03:38:58;4.95;-6.00
19340;HTU21D;9804;52.350;6.684;2023-02-28T03:41:35;4.96;-6.00
19340;HTU21D;9804;52.350;6.684;2023-02-28T03:44:09;4.93;-6.00
19340;HTU21D;9804;52.350;6.684;2023-02-28T03:46:44;4.89;-6.00
19340;HTU21D;9804;52.350;6.684;2023-02-28T03:49:18;4.93;-6.00
19340;HTU21D;9804;52.350;6.684;2023-02-28T03:51:46;4.91;-6.00
19340;HTU21D;9804;52.350;6.684;2023-02-28T03:54:16;4.96;-6.00
19340;HTU21D;9804;52.350;6.684;2023-02-28T03:56:48;4.82;-6.00
19340;HTU21D;9804;52.350;6.684;2023-02-28T03:59:35;4.88;-6.00
19340;HTU21D;9804;52.350;6.684;2023-02-28T04:02:02;4.84;-6.00
19340;HTU21D;9804;52.350;6.684;2023-02-28T04:04:28;4.86;-6.00
19340;HTU21D;9804;52.350;6.684;2023-02-28T04:07:05;4.82;-6.00
19340;HTU21D;9804;52.350;6.684;2023-02-28T04:09:30;4.80;-6.00
19340;HTU21D;9804;52.350;6.684;2023-02-28T04:11:56;4.83;-6.00
19340;HTU21D;9804;52.350;6.684;2023-02-28T04:14:21;4.77;-6.00
19340;HTU21D;9804;52.350;6.684;2023-02-28T04:16:47;4.76;-6.00
19340;HTU21D;9804;52.350;6.684;2023-02-28T04:19:13;4.74;-6.00
19340;HTU21D;9804;52.350;6.684;2023-02-28T04:21:48;4.73;-6.00
19340;HTU21D;9804;52.350;6.684;2023-02-28T04:24:22;4.72;-6.00
19340;HTU21D;9804;52.350;6.684;2023-02-28T04:26:53;4.75;-6.00
19340;HTU21D;9804;52.350;6.684;2023-02-28T04:29:27;4.81;-6.00
19340;HTU21D;9804;52.350;6.684;2023-02-28T04:31:53;4.79;-6.00
19340;HTU21D;9804;52.350;6.684;2023-02-28T04:34:20;4.77;-6.00
19340;HTU21D;9804;52.350;6.684;2023-02-28T04:36:46;4.74;-6.00
19340;HTU21D;9804;52.350;6.684;2023-02-28T04:39:15;4.79;-6.00
19340;HTU21D;9804;52.350;6.684;2023-02-28T04:41:40;4.80;-6.00
19340;HTU21D;9804;52.350;6.684;2023-02-28T04:44:05;4.83;-6.00
19340;HTU21D;9804;52.350;6.684;2023-02-28T04:46:31;4.81;-6.00
19340;HTU21D;9804;52.350;6.684;2023-02-28T04:48:56;4.77;-6.00
19340;HTU21D;9804;52.350;6.684;2023-02-28T04:51:22;4.76;-6.00
19340;HTU21D;9804;52.350;6.684;2023-02-28T04:53:48;4.71;-6.00
19340;HTU21D;9804;52.350;6.684;2023-02-28T04:56:15;4.66;-6.00
19340;HTU21D;9804;52.350;6.684;2023-02-28T04:58:42;4.64;-6.00
19340;HTU21D;9804;52.350;6.684;2023-02-28T05:03:44;4.51;-6.00
19340;HTU21D;9804;52.350;6.684;2023-02-28T05:06:10;4.54;-6.00
19340;HTU21D;9804;52.350;6.684;2023-02-28T05:08:36;4.44;-6.00
19340;HTU21D;9804;52.350;6.684;2023-02-28T05:11:02;4.52;-6.00
19340;HTU21D;9804;52.350;6.684;2023-02-28T05:13:28;4.59;-6.00
19340;HTU21D;9804;52.350;6.684;2023-02-28T05:15:54;4.48;-6.00
19340;HTU21D;9804;52.350;6.684;2023-02-28T05:18:19;4.28;-6.00
19340;HTU21D;9804;52.350;6.684;2023-02-28T05:20:45;4.43;-6.00
19340;HTU21D;9804;52.350;6.684;2023-02-28T05:23:12;4.49;-6.00
19340;HTU21D;9804;52.350;6.684;2023-02-28T05:25:38;4.32;-6.00
19340;HTU21D;9804;52.350;6.684;2023-02-28T05:28:04;4.28;-6.00
19340;HTU21D;9804;52.350;6.684;2023-02-28T05:30:29;4.22;-6.00
19340;HTU21D;9804;52.350;6.684;2023-02-28T05:32:57;4.27;-6.00
19340;HTU21D;9804;52.350;6.684;2023-02-28T05:35:22;4.28;-6.00
19340;HTU21D;9804;52.350;6.684;2023-02-28T05:37:48;4.28;-6.00
19340;HTU21D;9804;52.350;6.684;2023-02-28T05:40:13;4.28;-6.00
19340;HTU21D;9804;52.350;6.684;2023-02-28T05:42:40;4.22;-6.00
19340;HTU21D;9804;52.350;6.684;2023-02-28T05:45:05;4.26;-6.00
19340;HTU21D;9804;52.350;6.684;2023-02-28T05:47:32;4.29;-6.00
19340;HTU21D;9804;52.350;6.684;2023-02-28T05:49:57;4.38;-6.00
19340;HTU21D;9804;52.350;6.684;2023-02-28T05:52:23;4.41;-6.00
19340;HTU21D;9804;52.350;6.684;2023-02-28T05:54:48;4.35;-6.00
19340;HTU21D;9804;52.350;6.684;2023-02-28T05:57:14;4.24;-6.00
19340;HTU21D;9804;52.350;6.684;2023-02-28T05:59:40;4.22;-6.00
19340;HTU21D;9804;52.350;6.684;2023-02-28T06:02:10;4.26;-6.00
19340;HTU21D;9804;52.350;6.684;2023-02-28T06:04:37;4.29;-6.00
19340;HTU21D;9804;52.350;6.684;2023-02-28T06:07:02;4.29;-6.00
19340;HTU21D;9804;52.350;6.684;2023-02-28T06:09:28;4.20;-6.00
19340;HTU21D;9804;52.350;6.684;2023-02-28T06:11:54;4.17;-6.00
19340;HTU21D;9804;52.350;6.684;2023-02-28T06:14:20;4.17;-6.00
19340;HTU21D;9804;52.350;6.684;2023-02-28T06:16:45;4.24;-6.00
19340;HTU21D;9804;52.350;6.684;2023-02-28T06:19:11;4.19;-6.00
19340;HTU21D;9804;52.350;6.684;2023-02-28T06:21:37;4.13;-6.00
19340;HTU21D;9804;52.350;6.684;2023-02-28T06:24:02;4.03;-6.00
19340;HTU21D;9804;52.350;6.684;2023-02-28T06:26:28;4.01;-6.00
19340;HTU21D;9804;52.350;6.684;2023-02-28T06:28:54;4.01;-6.00
19340;HTU21D;9804;52.350;6.684;2023-02-28T06:31:19;4.12;-6.00
19340;HTU21D;9804;52.350;6.684;2023-02-28T06:33:45;4.06;-6.00
19340;HTU21D;9804;52.350;6.684;2023-02-28T06:36:13;4.09;-6.00
19340;HTU21D;9804;52.350;6.684;2023-02-28T06:38:39;4.09;-6.00
19340;HTU21D;9804;52.350;6.684;2023-02-28T06:41:05;4.21;-6.00
19340;HTU21D;9804;52.350;6.684;2023-02-28T06:43:33;4.32;-6.00
19340;HTU21D;9804;52.350;6.684;2023-02-28T06:46:00;4.36;-6.00
19340;HTU21D;9804;52.350;6.684;2023-02-28T06:48:27;4.36;-6.00
19340;HTU21D;9804;52.350;6.684;2023-02-28T06:51:00;4.39;-6.00
19340;HTU21D;9804;52.350;6.684;2023-02-28T06:53:26;4.37;-6.00
19340;HTU21D;9804;52.350;6.684;2023-02-28T06:55:51;4.35;-6.00
19340;HTU21D;9804;52.350;6.684;2023-02-28T06:58:17;4.31;-6.00
19340;HTU21D;9804;52.350;6.684;2023-02-28T07:00:45;4.42;-6.00
19340;HTU21D;9804;52.350;6.684;2023-02-28T07:03:12;4.47;-6.00
19340;HTU21D;9804;52.350;6.684;2023-02-28T07:05:38;4.57;-6.00
19340;HTU21D;9804;52.350;6.684;2023-02-28T07:08:05;4.61;-6.00
19340;HTU21D;9804;52.350;6.684;2023-02-28T07:10:31;4.64;-6.00
19340;HTU21D;9804;52.350;6.684;2023-02-28T07:12:58;4.69;-6.00
19340;HTU21D;9804;52.350;6.684;2023-02-28T07:15:23;4.74;-6.00
19340;HTU21D;9804;52.350;6.684;2023-02-28T07:17:48;4.75;-6.00
19340;HTU21D;9804;52.350;6.684;2023-02-28T07:20:14;4.82;-6.00
19340;HTU21D;9804;52.350;6.684;2023-02-28T07:22:39;4.91;-6.00
19340;HTU21D;9804;52.350;6.684;2023-02-28T07:25:05;4.91;-6.00
19340;HTU21D;9804;52.350;6.684;2023-02-28T07:27:31;4.90;-6.00
19340;HTU21D;9804;52.350;6.684;2023-02-28T07:29:57;4.95;-6.00
19340;HTU21D;9804;52.350;6.684;2023-02-28T07:32:22;4.95;-6.00
19340;HTU21D;9804;52.350;6.684;2023-02-28T07:34:48;4.96;-6.00
19340;HTU21D;9804;52.350;6.684;2023-02-28T07:37:14;5.09;-6.00
19340;HTU21D;9804;52.350;6.684;2023-02-28T07:39:39;5.31;-6.00
19340;HTU21D;9804;52.350;6.684;2023-02-28T07:42:07;5.30;-6.00
19340;HTU21D;9804;52.350;6.684;2023-02-28T07:44:35;5.49;-6.00
19340;HTU21D;9804;52.350;6.684;2023-02-28T07:47:08;5.63;-6.00
19340;HTU21D;9804;52.350;6.684;2023-02-28T07:49:37;5.62;-6.00
19340;HTU21D;9804;52.350;6.684;2023-02-28T07:52:04;5.76;-6.00
19340;HTU21D;9804;52.350;6.684;2023-02-28T07:54:30;5.66;-6.00
19340;HTU21D;9804;52.350;6.684;2023-02-28T07:56:55;5.61;-6.00
19340;HTU21D;9804;52.350;6.684;2023-02-28T07:59:20;5.54;-6.00
19340;HTU21D;9804;52.350;6.684;2023-02-28T08:01:46;5.32;-6.00
19340;HTU21D;9804;52.350;6.684;2023-02-28T08:04:11;5.38;-6.00
19340;HTU21D;9804;52.350;6.684;2023-02-28T08:06:37;5.34;-6.00
19340;HTU21D;9804;52.350;6.684;2023-02-28T08:09:02;5.50;-6.00
19340;HTU21D;9804;52.350;6.684;2023-02-28T08:11:28;5.48;-6.00
19340;HTU21D;9804;52.350;6.684;2023-02-28T08:13:54;5.55;-6.00
19340;HTU21D;9804;52.350;6.684;2023-02-28T08:16:20;5.54;-6.00
19340;HTU21D;9804;52.350;6.684;2023-02-28T08:18:56;5.60;-6.00
19340;HTU21D;9804;52.350;6.684;2023-02-28T08:21:21;5.62;-6.00
19340;HTU21D;9804;52.350;6.684;2023-02-28T08:23:48;5.64;-6.00
19340;HTU21D;9804;52.350;6.684;2023-02-28T08:26:14;5.68;-6.00
19340;HTU21D;9804;52.350;6.684;2023-02-28T08:28:39;5.65;-6.00
19340;HTU21D;9804;52.350;6.684;2023-02-28T08:31:13;5.77;-6.00
19340;HTU21D;9804;52.350;6.684;2023-02-28T08:33:40;5.82;-6.00
19340;HTU21D;9804;52.350;6.684;2023-02-28T08:36:07;5.93;-6.00
19340;HTU21D;9804;52.350;6.684;2023-02-28T08:38:34;6.06;-6.00
19340;HTU21D;9804;52.350;6.684;2023-02-28T08:41:02;6.06;-6.00
19340;HTU21D;9804;52.350;6.684;2023-02-28T08:43:28;6.16;-6.00
19340;HTU21D;9804;52.350;6.684;2023-02-28T08:45:55;6.30;-6.00
19340;HTU21D;9804;52.350;6.684;2023-02-28T08:48:25;6.49;-6.00
19340;HTU21D;9804;52.350;6.684;2023-02-28T08:50:58;6.40;-6.00
19340;HTU21D;9804;52.350;6.684;2023-02-28T08:53:24;6.39;-6.00
19340;HTU21D;9804;52.350;6.684;2023-02-28T08:56:00;6.43;-6.00
19340;HTU21D;9804;52.350;6.684;2023-02-28T08:58:27;6.30;-6.00
19340;HTU21D;9804;52.350;6.684;2023-02-28T09:00:52;6.33;-6.00
19340;HTU21D;9804;52.350;6.684;2023-02-28T09:03:18;6.38;-6.00
19340;HTU21D;9804;52.350;6.684;2023-02-28T09:05:58;6.40;-6.00
19340;HTU21D;9804;52.350;6.684;2023-02-28T09:08:25;6.43;-6.00
19340;HTU21D;9804;52.350;6.684;2023-02-28T09:10:51;6.65;-6.00
19340;HTU21D;9804;52.350;6.684;2023-02-28T09:13:17;6.68;-6.00
19340;HTU21D;9804;52.350;6.684;2023-02-28T09:15:43;6.71;-6.00
19340;HTU21D;9804;52.350;6.684;2023-02-28T09:18:08;6.78;-6.00
19340;HTU21D;9804;52.350;6.684;2023-02-28T09:20:33;6.87;-6.00
19340;HTU21D;9804;52.350;6.684;2023-02-28T09:22:59;6.97;-6.00
19340;HTU21D;9804;52.350;6.684;2023-02-28T09:25:24;6.96;-6.00
19340;HTU21D;9804;52.350;6.684;2023-02-28T09:27:50;7.07;-6.00
19340;HTU21D;9804;52.350;6.684;2023-02-28T09:30:16;6.81;-6.00
19340;HTU21D;9804;52.350;6.684;2023-02-28T09:32:41;7.01;-6.00
19340;HTU21D;9804;52.350;6.684;2023-02-28T09:35:07;7.20;-6.00
19340;HTU21D;9804;52.350;6.684;2023-02-28T09:37:38;7.23;-6.00
19340;HTU21D;9804;52.350;6.684;2023-02-28T09:40:04;6.95;-6.00
19340;HTU21D;9804;52.350;6.684;2023-02-28T09:42:32;7.26;-6.00
19340;HTU21D;9804;52.350;6.684;2023-02-28T09:45:00;6.76;-6.00
19340;HTU21D;9804;52.350;6.684;2023-02-28T09:47:42;7.18;-6.00
19340;HTU21D;9804;52.350;6.684;2023-02-28T09:52:54;7.41;-6.00
19340;HTU21D;9804;52.350;6.684;2023-02-28T09:55:31;7.31;-6.00
19340;HTU21D;9804;52.350;6.684;2023-02-28T09:57:58;7.47;-6.00
19340;HTU21D;9804;52.350;6.684;2023-02-28T10:00:33;7.59;-6.00
19340;HTU21D;9804;52.350;6.684;2023-02-28T10:03:28;7.86;-6.00
19340;HTU21D;9804;52.350;6.684;2023-02-28T10:06:10;7.75;-6.00
19340;HTU21D;9804;52.350;6.684;2023-02-28T10:08:45;7.92;-6.00
19340;HTU21D;9804;52.350;6.684;2023-02-28T10:11:15;8.01;-6.00
19340;HTU21D;9804;52.350;6.684;2023-02-28T10:14:14;8.00;-6.00
19340;HTU21D;9804;52.350;6.684;2023-02-28T10:19:20;8.05;-6.00
19340;HTU21D;9804;52.350;6.684;2023-02-28T10:21:57;7.73;-6.00
19340;HTU21D;9804;52.350;6.684;2023-02-28T10:29:51;7.94;-6.00
19340;HTU21D;9804;52.350;6.684;2023-02-28T10:32:20;8.03;-6.00
19340;HTU21D;9804;52.350;6.684;2023-02-28T10:37:37;8.28;-6.00
19340;HTU21D;9804;52.350;6.684;2023-02-28T10:40:24;8.11;-6.00
19340;HTU21D;9804;52.350;6.684;2023-02-28T10:43:16;8.15;-6.00
19340;HTU21D;9804;52.350;6.684;2023-02-28T10:45:55;8.21;-6.00
19340;HTU21D;9804;52.350;6.684;2023-02-28T10:55:41;8.53;-6.00
19340;HTU21D;9804;52.350;6.684;2023-02-28T10:58:21;8.41;-6.00
19340;HTU21D;9804;52.350;6.684;2023-02-28T11:00:47;8.34;-6.00
19340;HTU21D;9804;52.350;6.684;2023-02-28T11:03:32;8.28;-6.00
19340;HTU21D;9804;52.350;6.684;2023-02-28T11:05:58;8.51;-6.00
19340;HTU21D;9804;52.350;6.684;2023-02-28T11:08:28;8.66;-6.00
19340;HTU21D;9804;52.350;6.684;2023-02-28T11:11:05;8.89;-6.00
19340;HTU21D;9804;52.350;6.684;2023-02-28T11:13:36;8.63;-6.00
19340;HTU21D;9804;52.350;6.684;2023-02-28T11:16:07;8.77;-6.00
19340;HTU21D;9804;52.350;6.684;2023-02-28T11:21:04;8.94;-6.00
19340;HTU21D;9804;52.350;6.684;2023-02-28T11:23:33;9.06;-6.00
19340;HTU21D;9804;52.350;6.684;2023-02-28T11:26:02;8.93;-6.00
19340;HTU21D;9804;52.350;6.684;2023-02-28T11:28:35;9.04;-6.00
19340;HTU21D;9804;52.350;6.684;2023-02-28T11:31:15;8.92;-6.00
19340;HTU21D;9804;52.350;6.684;2023-02-28T11:36:15;8.65;-6.00
19340;HTU21D;9804;52.350;6.684;2023-02-28T11:38:42;8.79;-6.00
19340;HTU21D;9804;52.350;6.684;2023-02-28T11:50:16;8.95;-6.00
19340;HTU21D;9804;52.350;6.684;2023-02-28T11:53:01;9.06;-6.00
19340;HTU21D;9804;52.350;6.684;2023-02-28T11:58:17;9.20;-6.00
19340;HTU21D;9804;52.350;6.684;2023-02-28T12:00:57;8.98;-6.00
19340;HTU21D;9804;52.350;6.684;2023-02-28T12:03:59;8.98;-6.00
19340;HTU21D;9804;52.350;6.684;2023-02-28T12:06:35;8.90;-6.00
19340;HTU21D;9804;52.350;6.684;2023-02-28T12:11:55;8.90;-6.00
19340;HTU21D;9804;52.350;6.684;2023-02-28T12:14:30;9.06;-6.00
19340;HTU21D;9804;52.350;6.684;2023-02-28T12:17:24;9.01;-6.00
19340;HTU21D;9804;52.350;6.684;2023-02-28T12:20:17;8.80;-6.00
19340;HTU21D;9804;52.350;6.684;2023-02-28T12:25:59;8.91;-6.00
19340;HTU21D;9804;52.350;6.684;2023-02-28T12:28:32;9.36;-6.00
19340;HTU21D;9804;52.350;6.684;2023-02-28T12:31:06;9.45;-6.00
19340;HTU21D;9804;52.350;6.684;2023-02-28T12:33:42;9.31;-6.00
19340;HTU21D;9804;52.350;6.684;2023-02-28T12:36:11;9.30;-6.00
19340;HTU21D;9804;52.350;6.684;2023-02-28T12:38:47;9.21;-6.00
19340;HTU21D;9804;52.350;6.684;2023-02-28T12:41:17;9.56;-6.00
19340;HTU21D;9804;52.350;6.684;2023-02-28T12:43:51;9.22;-6.00
19340;HTU21D;9804;52.350;6.684;2023-02-28T12:46:25;9.34;-6.00
19340;HTU21D;9804;52.350;6.684;2023-02-28T12:48:57;9.32;-6.00
19340;HTU21D;9804;52.350;6.684;2023-02-28T12:51:25;9.31;-6.00
19340;HTU21D;9804;52.350;6.684;2023-02-28T12:54:14;9.29;-6.00
19340;HTU21D;9804;52.350;6.684;2023-02-28T13:08:35;9.41;-6.00
19340;HTU21D;9804;52.350;6.684;2023-02-28T13:10:40;9.59;-6.00
19340;HTU21D;9804;52.350;6.684;2023-02-28T13:13:14;9.55;-6.00
19340;HTU21D;9804;52.350;6.684;2023-02-28T13:15:40;9.02;-6.00
19340;HTU21D;9804;52.350;6.684;2023-02-28T13:18:28;9.41;-6.00
19340;HTU21D;9804;52.350;6.684;2023-02-28T13:20:54;9.24;-6.00
19340;HTU21D;9804;52.350;6.684;2023-02-28T13:26:04;9.32;-6.00
19340;HTU21D;9804;52.350;6.684;2023-02-28T13:31:14;9.21;-6.00
19340;HTU21D;9804;52.350;6.684;2023-02-28T13:46:34;9.35;-6.00
19340;HTU21D;9804;52.350;6.684;2023-02-28T14:05:32;9.61;-6.00
19340;HTU21D;9804;52.350;6.684;2023-02-28T14:08:08;9.53;-6.00
19340;HTU21D;9804;52.350;6.684;2023-02-28T14:10:50;9.56;-6.00
19340;HTU21D;9804;52.350;6.684;2023-02-28T14:15:59;9.49;-6.00
19340;HTU21D;9804;52.350;6.684;2023-02-28T14:18:33;9.76;-6.00
19340;HTU21D;9804;52.350;6.684;2023-02-28T14:24:13;9.56;-6.00
19340;HTU21D;9804;52.350;6.684;2023-02-28T14:35:22;9.52;-6.00
19340;HTU21D;9804;52.350;6.684;2023-02-28T14:37:53;9.81;-6.00
19340;HTU21D;9804;52.350;6.684;2023-02-28T14:40:29;9.77;-6.00
19340;HTU21D;9804;52.350;6.684;2023-02-28T14:42:57;9.97;-6.00
19340;HTU21D;9804;52.350;6.684;2023-02-28T14:45:27;9.69;-6.00
19340;HTU21D;9804;52.350;6.684;2023-02-28T14:47:54;9.89;-6.00
19340;HTU21D;9804;52.350;6.684;2023-02-28T14:50:26;9.89;-6.00
19340;HTU21D;9804;52.350;6.684;2023-02-28T14:52:53;9.25;-6.00
19340;HTU21D;9804;52.350;6.684;2023-02-28T14:55:25;9.59;-6.00
19340;HTU21D;9804;52.350;6.684;2023-02-28T14:57:57;9.74;-6.00
19340;HTU21D;9804;52.350;6.684;2023-02-28T15:00:28;9.56;-6.00
19340;HTU21D;9804;52.350;6.684;2023-02-28T15:02:56;9.41;-6.00
19340;HTU21D;9804;52.350;6.684;2023-02-28T15:05:33;9.45;-6.00
19340;HTU21D;9804;52.350;6.684;2023-02-28T15:10:35;9.49;-6.00
19340;HTU21D;9804;52.350;6.684;2023-02-28T15:13:05;9.50;-6.00
19340;HTU21D;9804;52.350;6.684;2023-02-28T15:18:42;9.59;-6.00
19340;HTU21D;9804;52.350;6.684;2023-02-28T15:23:42;9.54;-6.00
19340;HTU21D;9804;52.350;6.684;2023-02-28T15:26:15;9.45;-6.00
19340;HTU21D;9804;52.350;6.684;2023-02-28T15:28:41;9.40;-6.00
19340;HTU21D;9804;52.350;6.684;2023-02-28T15:31:22;9.11;-6.00
19340;HTU21D;9804;52.350;6.684;2023-02-28T15:33:56;9.33;-6.00
19340;HTU21D;9804;52.350;6.684;2023-02-28T15:36:26;9.35;-6.00
19340;HTU21D;9804;52.350;6.684;2023-02-28T15:38:53;9.56;-6.00
19340;HTU21D;9804;52.350;6.684;2023-02-28T15:41:29;9.46;-6.00
19340;HTU21D;9804;52.350;6.684;2023-02-28T15:44:24;9.52;-6.00
19340;HTU21D;9804;52.350;6.684;2023-02-28T15:46:58;9.47;-6.00
19340;HTU21D;9804;52.350;6.684;2023-02-28T15:49:25;9.53;-6.00
19340;HTU21D;9804;52.350;6.684;2023-02-28T15:51:51;9.52;-6.00
19340;HTU21D;9804;52.350;6.684;2023-02-28T15:54:28;9.33;-6.00
19340;HTU21D;9804;52.350;6.684;2023-02-28T15:57:03;9.48;-6.00
19340;HTU21D;9804;52.350;6.684;2023-02-28T15:59:30;9.63;-6.00
19340;HTU21D;9804;52.350;6.684;2023-02-28T16:02:16;9.24;-6.00
19340;HTU21D;9804;52.350;6.684;2023-02-28T16:05:25;9.60;-6.00
19340;HTU21D;9804;52.350;6.684;2023-02-28T16:07:59;9.54;-6.00
19340;HTU21D;9804;52.350;6.684;2023-02-28T16:10:27;9.65;-6.00
19340;HTU21D;9804;52.350;6.684;2023-02-28T16:12:57;9.59;-6.00
19340;HTU21D;9804;52.350;6.684;2023-02-28T16:15:27;9.69;-6.00
19340;HTU21D;9804;52.350;6.684;2023-02-28T16:17:54;9.65;-6.00
19340;HTU21D;9804;52.350;6.684;2023-02-28T16:20:28;9.77;-6.00
19340;HTU21D;9804;52.350;6.684;2023-02-28T16:22:54;9.51;-6.00
19340;HTU21D;9804;52.350;6.684;2023-02-28T16:25:23;9.04;-6.00
19340;HTU21D;9804;52.350;6.684;2023-02-28T16:27:52;9.51;-6.00
19340;HTU21D;9804;52.350;6.684;2023-02-28T16:30:24;9.77;-6.00
19340;HTU21D;9804;52.350;6.684;2023-02-28T16:32:51;9.66;-6.00
19340;HTU21D;9804;52.350;6.684;2023-02-28T16:35:18;9.42;-6.00
19340;HTU21D;9804;52.350;6.684;2023-02-28T16:37:44;9.48;-6.00
19340;HTU21D;9804;52.350;6.684;2023-02-28T16:40:16;9.50;-6.00
19340;HTU21D;9804;52.350;6.684;2023-02-28T16:42:43;9.50;-6.00
19340;HTU21D;9804;52.350;6.684;2023-02-28T16:45:16;9.22;-6.00
19340;HTU21D;9804;52.350;6.684;2023-02-28T16:47:43;9.26;-6.00
19340;HTU21D;9804;52.350;6.684;2023-02-28T16:50:17;9.29;-6.00
19340;HTU21D;9804;52.350;6.684;2023-02-28T16:52:43;9.17;-6.00
19340;HTU21D;9804;52.350;6.684;2023-02-28T16:55:09;9.01;-6.00
19340;HTU21D;9804;52.350;6.684;2023-02-28T16:57:35;8.85;-6.00
19340;HTU21D;9804;52.350;6.684;2023-02-28T17:00:01;8.48;-6.00
19340;HTU21D;9804;52.350;6.684;2023-02-28T17:02:26;8.33;-6.00
19340;HTU21D;9804;52.350;6.684;2023-02-28T17:04:51;8.06;-6.00
19340;HTU21D;9804;52.350;6.684;2023-02-28T17:07:17;7.88;-6.00
19340;HTU21D;9804;52.350;6.684;2023-02-28T17:09:43;7.76;-6.00
19340;HTU21D;9804;52.350;6.684;2023-02-28T17:12:09;7.78;-6.00
19340;HTU21D;9804;52.350;6.684;2023-02-28T17:14:36;7.64;-6.00
19340;HTU21D;9804;52.350;6.684;2023-02-28T17:17:04;7.47;-6.00
19340;HTU21D;9804;52.350;6.684;2023-02-28T17:19:29;7.31;-6.00
19340;HTU21D;9804;52.350;6.684;2023-02-28T17:21:55;7.27;-6.00
19340;HTU21D;9804;52.350;6.684;2023-02-28T17:24:20;7.12;-6.00
19340;HTU21D;9804;52.350;6.684;2023-02-28T17:26:46;6.88;-6.00
19340;HTU21D;9804;52.350;6.684;2023-02-28T17:29:15;6.71;-6.00
19340;HTU21D;9804;52.350;6.684;2023-02-28T17:31:41;6.61;-6.00
19340;HTU21D;9804;52.350;6.684;2023-02-28T17:34:06;6.44;-6.00
19340;HTU21D;9804;52.350;6.684;2023-02-28T17:36:32;6.30;-6.00
19340;HTU21D;9804;52.350;6.684;2023-02-28T17:38:59;6.12;-6.00
19340;HTU21D;9804;52.350;6.684;2023-02-28T17:41:24;6.17;-6.00
19340;HTU21D;9804;52.350;6.684;2023-02-28T17:43:51;6.15;-6.00
19340;HTU21D;9804;52.350;6.684;2023-02-28T17:48:48;6.00;-6.00
19340;HTU21D;9804;52.350;6.684;2023-02-28T17:51:14;5.90;-6.00
19340;HTU21D;9804;52.350;6.684;2023-02-28T17:53:40;5.80;-6.00
19340;HTU21D;9804;52.350;6.684;2023-02-28T17:56:21;5.74;-6.00
19340;HTU21D;9804;52.350;6.684;2023-02-28T17:58:48;5.70;-6.00
19340;HTU21D;9804;52.350;6.684;2023-02-28T18:01:14;5.65;-6.00
19340;HTU21D;9804;52.350;6.684;2023-02-28T18:03:40;5.55;-6.00
19340;HTU21D;9804;52.350;6.684;2023-02-28T18:06:06;5.56;-6.00
19340;HTU21D;9804;52.350;6.684;2023-02-28T18:08:32;5.53;-6.00
19340;HTU21D;9804;52.350;6.684;2023-02-28T18:11:00;5.52;-6.00
19340;HTU21D;9804;52.350;6.684;2023-02-28T18:13:25;5.30;-6.00
19340;HTU21D;9804;52.350;6.684;2023-02-28T18:15:53;5.16;-6.00
19340;HTU21D;9804;52.350;6.684;2023-02-28T18:18:18;4.93;-6.00
19340;HTU21D;9804;52.350;6.684;2023-02-28T18:20:43;4.91;-6.00
19340;HTU21D;9804;52.350;6.684;2023-02-28T18:23:09;5.12;-6.00
19340;HTU21D;9804;52.350;6.684;2023-02-28T18:25:34;4.94;-6.00
19340;HTU21D;9804;52.350;6.684;2023-02-28T18:28:00;4.80;-6.00